Terminal Aerodrome Forecast
Issued by NWS Rapid City, SD

Home | Current Version | Previous Version | Text Only | Print | Product List | Glossary Off
Versions: 1 2 3 4 5 6 7 8 9 10 11 12 13 14 15

000
FTUS43 KUNR 152300
TAFRAP
TAF
KRAP 152320Z 1600/1624 16014KT P6SM SKC
     FM160200 VRB04KT P6SM SKC
     FM161800 04008KT P6SM SKC=

USA.gov is the U.S. government's official web portal to all federal, state and local government web resources and services.